sensor_id;sensor_type;location;lat;lon;timestamp;P1;durP1;ratioP1;P2;durP2;ratioP2
2646;SDS011;1333;50.958;6.770;2022-11-15T00:01:20;13.13;;;8.10;;
2646;SDS011;1333;50.958;6.770;2022-11-15T00:03:45;9.23;;;6.60;;
2646;SDS011;1333;50.958;6.770;2022-11-15T00:06:11;9.80;;;6.43;;
2646;SDS011;1333;50.958;6.770;2022-11-15T00:08:37;10.90;;;7.30;;
2646;SDS011;1333;50.958;6.770;2022-11-15T00:11:02;11.90;;;8.03;;
2646;SDS011;1333;50.958;6.770;2022-11-15T00:13:28;10.27;;;7.23;;
2646;SDS011;1333;50.958;6.770;2022-11-15T00:15:58;12.20;;;7.40;;
2646;SDS011;1333;50.958;6.770;2022-11-15T00:18:25;9.17;;;7.20;;
2646;SDS011;1333;50.958;6.770;2022-11-15T00:20:50;9.70;;;7.10;;
2646;SDS011;1333;50.958;6.770;2022-11-15T00:23:16;11.20;;;7.17;;
2646;SDS011;1333;50.958;6.770;2022-11-15T00:25:41;11.60;;;7.20;;
2646;SDS011;1333;50.958;6.770;2022-11-15T00:28:07;13.50;;;7.43;;
2646;SDS011;1333;50.958;6.770;2022-11-15T00:30:32;13.73;;;8.80;;
2646;SDS011;1333;50.958;6.770;2022-11-15T00:33:03;13.33;;;7.93;;
2646;SDS011;1333;50.958;6.770;2022-11-15T00:35:33;12.83;;;7.97;;
2646;SDS011;1333;50.958;6.770;2022-11-15T00:37:59;8.30;;;6.53;;
2646;SDS011;1333;50.958;6.770;2022-11-15T00:40:26;9.17;;;6.40;;
2646;SDS011;1333;50.958;6.770;2022-11-15T00:42:51;8.23;;;6.40;;
2646;SDS011;1333;50.958;6.770;2022-11-15T00:45:17;8.50;;;6.27;;
2646;SDS011;1333;50.958;6.770;2022-11-15T00:47:46;12.17;;;7.57;;
2646;SDS011;1333;50.958;6.770;2022-11-15T00:50:12;8.67;;;6.50;;
2646;SDS011;1333;50.958;6.770;2022-11-15T00:52:38;7.97;;;6.67;;
2646;SDS011;1333;50.958;6.770;2022-11-15T00:55:03;15.13;;;6.80;;
2646;SDS011;1333;50.958;6.770;2022-11-15T00:57:29;12.70;;;7.17;;
2646;SDS011;1333;50.958;6.770;2022-11-15T00:59:55;9.60;;;7.20;;
2646;SDS011;1333;50.958;6.770;2022-11-15T01:02:20;8.57;;;6.80;;
2646;SDS011;1333;50.958;6.770;2022-11-15T01:04:46;15.07;;;7.77;;
2646;SDS011;1333;50.958;6.770;2022-11-15T01:07:12;11.00;;;6.03;;
2646;SDS011;1333;50.958;6.770;2022-11-15T01:09:37;10.17;;;7.40;;
2646;SDS011;1333;50.958;6.770;2022-11-15T01:12:03;8.97;;;6.47;;
2646;SDS011;1333;50.958;6.770;2022-11-15T01:14:28;9.93;;;6.67;;
2646;SDS011;1333;50.958;6.770;2022-11-15T01:16:54;12.70;;;8.03;;
2646;SDS011;1333;50.958;6.770;2022-11-15T01:19:20;11.00;;;7.37;;
2646;SDS011;1333;50.958;6.770;2022-11-15T01:21:45;11.77;;;7.93;;
2646;SDS011;1333;50.958;6.770;2022-11-15T01:24:14;11.83;;;6.43;;
2646;SDS011;1333;50.958;6.770;2022-11-15T01:26:40;9.07;;;6.20;;
2646;SDS011;1333;50.958;6.770;2022-11-15T01:29:06;12.00;;;8.10;;
2646;SDS011;1333;50.958;6.770;2022-11-15T01:31:31;11.00;;;7.60;;
2646;SDS011;1333;50.958;6.770;2022-11-15T01:33:57;9.40;;;7.43;;
2646;SDS011;1333;50.958;6.770;2022-11-15T01:36:22;10.50;;;7.87;;
2646;SDS011;1333;50.958;6.770;2022-11-15T01:38:54;13.60;;;8.27;;
2646;SDS011;1333;50.958;6.770;2022-11-15T01:41:26;15.97;;;7.87;;
2646;SDS011;1333;50.958;6.770;2022-11-15T01:43:54;11.17;;;7.33;;
2646;SDS011;1333;50.958;6.770;2022-11-15T01:46:27;8.73;;;6.90;;
2646;SDS011;1333;50.958;6.770;2022-11-15T01:48:56;8.57;;;6.47;;
2646;SDS011;1333;50.958;6.770;2022-11-15T01:51:25;14.17;;;8.50;;
2646;SDS011;1333;50.958;6.770;2022-11-15T01:53:54;9.73;;;7.60;;
2646;SDS011;1333;50.958;6.770;2022-11-15T01:56:25;8.90;;;5.80;;
2646;SDS011;1333;50.958;6.770;2022-11-15T01:58:55;12.40;;;7.60;;
2646;SDS011;1333;50.958;6.770;2022-11-15T02:01:23;12.30;;;7.80;;
2646;SDS011;1333;50.958;6.770;2022-11-15T02:03:51;10.67;;;7.77;;
2646;SDS011;1333;50.958;6.770;2022-11-15T02:06:22;12.70;;;8.43;;
2646;SDS011;1333;50.958;6.770;2022-11-15T02:08:47;12.47;;;7.73;;
2646;SDS011;1333;50.958;6.770;2022-11-15T02:11:14;11.60;;;8.00;;
2646;SDS011;1333;50.958;6.770;2022-11-15T02:13:40;14.13;;;8.53;;
2646;SDS011;1333;50.958;6.770;2022-11-15T02:21:54;16.13;;;7.57;;
2646;SDS011;1333;50.958;6.770;2022-11-15T02:24:53;12.63;;;6.30;;
2646;SDS011;1333;50.958;6.770;2022-11-15T02:35:27;9.63;;;6.53;;
2646;SDS011;1333;50.958;6.770;2022-11-15T02:38:05;7.30;;;6.57;;
2646;SDS011;1333;50.958;6.770;2022-11-15T02:40:58;10.63;;;7.90;;
2646;SDS011;1333;50.958;6.770;2022-11-15T02:43:33;10.40;;;7.50;;
2646;SDS011;1333;50.958;6.770;2022-11-15T02:49:13;11.23;;;8.53;;
2646;SDS011;1333;50.958;6.770;2022-11-15T02:51:39;12.10;;;7.30;;
2646;SDS011;1333;50.958;6.770;2022-11-15T02:54:06;14.90;;;7.07;;
2646;SDS011;1333;50.958;6.770;2022-11-15T02:56:34;9.03;;;5.97;;
2646;SDS011;1333;50.958;6.770;2022-11-15T03:01:47;11.57;;;7.30;;
2646;SDS011;1333;50.958;6.770;2022-11-15T03:04:23;9.27;;;6.40;;
2646;SDS011;1333;50.958;6.770;2022-11-15T03:10:18;11.27;;;6.37;;
2646;SDS011;1333;50.958;6.770;2022-11-15T03:15:32;8.20;;;6.10;;
2646;SDS011;1333;50.958;6.770;2022-11-15T03:18:04;13.90;;;6.63;;
2646;SDS011;1333;50.958;6.770;2022-11-15T03:20:36;10.33;;;6.40;;
2646;SDS011;1333;50.958;6.770;2022-11-15T03:23:06;17.43;;;7.27;;
2646;SDS011;1333;50.958;6.770;2022-11-15T03:25:34;10.63;;;6.90;;
2646;SDS011;1333;50.958;6.770;2022-11-15T03:28:04;9.30;;;6.10;;
2646;SDS011;1333;50.958;6.770;2022-11-15T03:30:32;10.40;;;7.07;;
2646;SDS011;1333;50.958;6.770;2022-11-15T03:33:02;11.53;;;6.07;;
2646;SDS011;1333;50.958;6.770;2022-11-15T03:35:38;10.93;;;7.33;;
2646;SDS011;1333;50.958;6.770;2022-11-15T03:40:40;9.73;;;7.10;;
2646;SDS011;1333;50.958;6.770;2022-11-15T03:48:30;9.13;;;6.43;;
2646;SDS011;1333;50.958;6.770;2022-11-15T03:51:00;10.97;;;7.57;;
2646;SDS011;1333;50.958;6.770;2022-11-15T03:53:27;8.67;;;6.20;;
2646;SDS011;1333;50.958;6.770;2022-11-15T03:55:53;9.00;;;6.27;;
2646;SDS011;1333;50.958;6.770;2022-11-15T03:58:19;8.30;;;6.77;;
2646;SDS011;1333;50.958;6.770;2022-11-15T04:00:44;11.33;;;6.50;;
2646;SDS011;1333;50.958;6.770;2022-11-15T04:03:10;6.73;;;4.97;;
2646;SDS011;1333;50.958;6.770;2022-11-15T04:05:35;8.03;;;5.90;;
2646;SDS011;1333;50.958;6.770;2022-11-15T04:08:01;6.77;;;5.37;;
2646;SDS011;1333;50.958;6.770;2022-11-15T04:10:26;11.50;;;5.93;;
2646;SDS011;1333;50.958;6.770;2022-11-15T04:12:52;12.00;;;6.27;;
2646;SDS011;1333;50.958;6.770;2022-11-15T04:15:18;11.53;;;6.10;;
2646;SDS011;1333;50.958;6.770;2022-11-15T04:17:46;11.13;;;6.93;;
2646;SDS011;1333;50.958;6.770;2022-11-15T04:23:03;7.03;;;6.07;;
2646;SDS011;1333;50.958;6.770;2022-11-15T04:25:49;8.20;;;5.97;;
2646;SDS011;1333;50.958;6.770;2022-11-15T04:28:16;9.87;;;7.20;;
2646;SDS011;1333;50.958;6.770;2022-11-15T04:30:42;11.50;;;6.57;;
2646;SDS011;1333;50.958;6.770;2022-11-15T04:33:07;10.10;;;6.63;;
2646;SDS011;1333;50.958;6.770;2022-11-15T04:35:33;11.20;;;6.73;;
2646;SDS011;1333;50.958;6.770;2022-11-15T04:37:59;7.73;;;6.20;;
2646;SDS011;1333;50.958;6.770;2022-11-15T04:40:25;10.03;;;5.80;;
2646;SDS011;1333;50.958;6.770;2022-11-15T04:42:51;14.13;;;7.90;;
2646;SDS011;1333;50.958;6.770;2022-11-15T04:45:16;9.17;;;6.60;;
2646;SDS011;1333;50.958;6.770;2022-11-15T04:47:45;11.30;;;7.53;;
2646;SDS011;1333;50.958;6.770;2022-11-15T04:50:11;8.17;;;5.90;;
2646;SDS011;1333;50.958;6.770;2022-11-15T04:52:39;7.93;;;5.87;;
2646;SDS011;1333;50.958;6.770;2022-11-15T04:55:05;10.23;;;6.90;;
2646;SDS011;1333;50.958;6.770;2022-11-15T04:57:31;8.30;;;6.03;;
2646;SDS011;1333;50.958;6.770;2022-11-15T04:59:57;8.40;;;6.43;;
2646;SDS011;1333;50.958;6.770;2022-11-15T05:02:22;9.77;;;6.27;;
2646;SDS011;1333;50.958;6.770;2022-11-15T05:04:48;9.13;;;6.20;;
2646;SDS011;1333;50.958;6.770;2022-11-15T05:07:13;9.47;;;5.80;;
2646;SDS011;1333;50.958;6.770;2022-11-15T05:09:39;7.80;;;4.53;;
2646;SDS011;1333;50.958;6.770;2022-11-15T05:12:04;8.13;;;5.27;;
2646;SDS011;1333;50.958;6.770;2022-11-15T05:14:30;9.67;;;5.47;;
2646;SDS011;1333;50.958;6.770;2022-11-15T05:16:55;6.23;;;5.23;;
2646;SDS011;1333;50.958;6.770;2022-11-15T05:19:21;9.70;;;5.77;;
2646;SDS011;1333;50.958;6.770;2022-11-15T05:21:47;8.90;;;5.50;;
2646;SDS011;1333;50.958;6.770;2022-11-15T05:24:12;8.13;;;7.07;;
2646;SDS011;1333;50.958;6.770;2022-11-15T05:26:38;9.17;;;6.03;;
2646;SDS011;1333;50.958;6.770;2022-11-15T05:29:03;10.10;;;5.20;;
2646;SDS011;1333;50.958;6.770;2022-11-15T05:31:29;5.90;;;4.30;;
2646;SDS011;1333;50.958;6.770;2022-11-15T05:33:55;9.27;;;5.20;;
2646;SDS011;1333;50.958;6.770;2022-11-15T05:38:49;5.97;;;4.70;;
2646;SDS011;1333;50.958;6.770;2022-11-15T05:41:15;7.83;;;5.10;;
2646;SDS011;1333;50.958;6.770;2022-11-15T05:43:44;8.10;;;5.67;;
2646;SDS011;1333;50.958;6.770;2022-11-15T05:46:11;7.80;;;5.47;;
2646;SDS011;1333;50.958;6.770;2022-11-15T05:48:39;8.27;;;5.43;;
2646;SDS011;1333;50.958;6.770;2022-11-15T05:51:08;7.00;;;5.00;;
2646;SDS011;1333;50.958;6.770;2022-11-15T05:53:33;7.40;;;5.57;;
2646;SDS011;1333;50.958;6.770;2022-11-15T05:56:02;6.40;;;4.97;;
2646;SDS011;1333;50.958;6.770;2022-11-15T05:58:28;7.33;;;4.77;;
2646;SDS011;1333;50.958;6.770;2022-11-15T06:00:55;6.03;;;4.50;;
2646;SDS011;1333;50.958;6.770;2022-11-15T06:03:21;5.47;;;4.43;;
2646;SDS011;1333;50.958;6.770;2022-11-15T06:05:46;8.73;;;6.27;;
2646;SDS011;1333;50.958;6.770;2022-11-15T06:08:12;5.97;;;5.37;;
2646;SDS011;1333;50.958;6.770;2022-11-15T06:10:37;8.57;;;5.70;;
2646;SDS011;1333;50.958;6.770;2022-11-15T06:13:03;12.00;;;6.30;;
2646;SDS011;1333;50.958;6.770;2022-11-15T06:15:29;6.50;;;4.07;;
2646;SDS011;1333;50.958;6.770;2022-11-15T06:17:56;6.07;;;4.90;;
2646;SDS011;1333;50.958;6.770;2022-11-15T06:20:23;5.07;;;4.10;;
2646;SDS011;1333;50.958;6.770;2022-11-15T06:22:56;13.33;;;5.13;;
2646;SDS011;1333;50.958;6.770;2022-11-15T06:25:22;5.10;;;3.87;;
2646;SDS011;1333;50.958;6.770;2022-11-15T06:27:54;6.83;;;5.23;;
2646;SDS011;1333;50.958;6.770;2022-11-15T06:30:21;6.47;;;5.03;;
2646;SDS011;1333;50.958;6.770;2022-11-15T06:32:47;5.13;;;4.30;;
2646;SDS011;1333;50.958;6.770;2022-11-15T06:35:13;4.73;;;3.90;;
2646;SDS011;1333;50.958;6.770;2022-11-15T06:37:39;6.27;;;3.80;;
2646;SDS011;1333;50.958;6.770;2022-11-15T06:40:06;8.90;;;3.97;;
2646;SDS011;1333;50.958;6.770;2022-11-15T06:42:33;3.90;;;3.50;;
2646;SDS011;1333;50.958;6.770;2022-11-15T06:44:58;5.67;;;3.63;;
2646;SDS011;1333;50.958;6.770;2022-11-15T06:47:24;3.63;;;2.77;;
2646;SDS011;1333;50.958;6.770;2022-11-15T06:49:49;5.20;;;3.67;;
2646;SDS011;1333;50.958;6.770;2022-11-15T06:52:15;7.00;;;4.43;;
2646;SDS011;1333;50.958;6.770;2022-11-15T06:54:43;9.67;;;3.60;;
2646;SDS011;1333;50.958;6.770;2022-11-15T06:57:09;6.00;;;3.30;;
2646;SDS011;1333;50.958;6.770;2022-11-15T06:59:35;6.53;;;3.43;;
2646;SDS011;1333;50.958;6.770;2022-11-15T07:02:01;4.93;;;3.03;;
2646;SDS011;1333;50.958;6.770;2022-11-15T07:04:26;5.03;;;3.03;;
2646;SDS011;1333;50.958;6.770;2022-11-15T07:06:52;4.33;;;3.33;;
2646;SDS011;1333;50.958;6.770;2022-11-15T07:09:17;3.60;;;2.50;;
2646;SDS011;1333;50.958;6.770;2022-11-15T07:11:43;4.57;;;2.40;;
2646;SDS011;1333;50.958;6.770;2022-11-15T07:14:09;3.03;;;2.30;;
2646;SDS011;1333;50.958;6.770;2022-11-15T07:16:35;3.20;;;2.43;;
2646;SDS011;1333;50.958;6.770;2022-11-15T07:19:01;3.37;;;2.47;;
2646;SDS011;1333;50.958;6.770;2022-11-15T07:21:27;3.43;;;3.00;;
2646;SDS011;1333;50.958;6.770;2022-11-15T07:23:52;9.00;;;3.00;;
2646;SDS011;1333;50.958;6.770;2022-11-15T07:26:18;2.83;;;2.53;;
2646;SDS011;1333;50.958;6.770;2022-11-15T07:28:43;5.90;;;3.70;;
2646;SDS011;1333;50.958;6.770;2022-11-15T07:31:09;4.17;;;3.00;;
2646;SDS011;1333;50.958;6.770;2022-11-15T07:33:35;4.43;;;2.90;;
2646;SDS011;1333;50.958;6.770;2022-11-15T07:36:01;10.30;;;3.33;;
2646;SDS011;1333;50.958;6.770;2022-11-15T07:38:29;3.03;;;2.47;;
2646;SDS011;1333;50.958;6.770;2022-11-15T07:40:59;8.83;;;4.00;;
2646;SDS011;1333;50.958;6.770;2022-11-15T07:43:26;5.20;;;3.80;;
2646;SDS011;1333;50.958;6.770;2022-11-15T07:45:55;6.80;;;2.70;;
2646;SDS011;1333;50.958;6.770;2022-11-15T07:48:21;5.13;;;3.43;;
2646;SDS011;1333;50.958;6.770;2022-11-15T07:50:47;7.73;;;3.33;;
2646;SDS011;1333;50.958;6.770;2022-11-15T07:53:13;5.17;;;2.97;;
2646;SDS011;1333;50.958;6.770;2022-11-15T07:55:39;7.33;;;2.57;;
2646;SDS011;1333;50.958;6.770;2022-11-15T07:58:07;3.77;;;2.90;;
2646;SDS011;1333;50.958;6.770;2022-11-15T08:00:35;2.60;;;2.23;;
2646;SDS011;1333;50.958;6.770;2022-11-15T08:03:02;4.70;;;2.60;;
2646;SDS011;1333;50.958;6.770;2022-11-15T08:05:27;5.47;;;1.80;;
2646;SDS011;1333;50.958;6.770;2022-11-15T08:07:55;4.20;;;2.33;;
2646;SDS011;1333;50.958;6.770;2022-11-15T08:10:21;3.33;;;1.87;;
2646;SDS011;1333;50.958;6.770;2022-11-15T08:12:46;4.63;;;2.37;;
2646;SDS011;1333;50.958;6.770;2022-11-15T08:15:12;2.03;;;1.57;;
2646;SDS011;1333;50.958;6.770;2022-11-15T08:17:37;4.57;;;2.30;;
2646;SDS011;1333;50.958;6.770;2022-11-15T08:20:03;1.90;;;1.30;;
2646;SDS011;1333;50.958;6.770;2022-11-15T08:22:29;2.43;;;1.50;;
2646;SDS011;1333;50.958;6.770;2022-11-15T08:24:55;2.10;;;1.10;;
2646;SDS011;1333;50.958;6.770;2022-11-15T08:27:20;3.50;;;1.57;;
2646;SDS011;1333;50.958;6.770;2022-11-15T08:29:47;1.63;;;1.37;;
2646;SDS011;1333;50.958;6.770;2022-11-15T08:32:13;3.00;;;1.30;;
2646;SDS011;1333;50.958;6.770;2022-11-15T08:34:39;2.23;;;1.40;;
2646;SDS011;1333;50.958;6.770;2022-11-15T08:37:04;2.03;;;1.07;;
2646;SDS011;1333;50.958;6.770;2022-11-15T08:39:30;1.67;;;1.20;;
2646;SDS011;1333;50.958;6.770;2022-11-15T08:41:56;3.67;;;1.70;;
2646;SDS011;1333;50.958;6.770;2022-11-15T08:44:22;2.20;;;1.27;;
2646;SDS011;1333;50.958;6.770;2022-11-15T08:46:48;2.13;;;1.47;;
2646;SDS011;1333;50.958;6.770;2022-11-15T08:49:14;2.60;;;2.23;;
2646;SDS011;1333;50.958;6.770;2022-11-15T08:51:40;2.37;;;2.13;;
2646;SDS011;1333;50.958;6.770;2022-11-15T08:54:05;2.33;;;1.67;;
2646;SDS011;1333;50.958;6.770;2022-11-15T08:56:31;2.00;;;1.53;;
2646;SDS011;1333;50.958;6.770;2022-11-15T08:58:57;2.00;;;1.80;;
2646;SDS011;1333;50.958;6.770;2022-11-15T09:01:22;2.43;;;1.50;;
2646;SDS011;1333;50.958;6.770;2022-11-15T09:03:48;2.80;;;1.87;;
2646;SDS011;1333;50.958;6.770;2022-11-15T09:06:13;2.57;;;1.63;;
2646;SDS011;1333;50.958;6.770;2022-11-15T09:08:40;3.50;;;1.37;;
2646;SDS011;1333;50.958;6.770;2022-11-15T09:11:06;3.67;;;1.97;;
2646;SDS011;1333;50.958;6.770;2022-11-15T09:13:33;2.20;;;1.53;;
2646;SDS011;1333;50.958;6.770;2022-11-15T09:16:00;2.63;;;1.30;;
2646;SDS011;1333;50.958;6.770;2022-11-15T09:18:26;3.10;;;1.70;;
2646;SDS011;1333;50.958;6.770;2022-11-15T09:20:54;3.40;;;1.83;;
2646;SDS011;1333;50.958;6.770;2022-11-15T09:23:21;2.90;;;1.50;;
2646;SDS011;1333;50.958;6.770;2022-11-15T09:25:47;2.97;;;1.67;;
2646;SDS011;1333;50.958;6.770;2022-11-15T09:28:13;2.70;;;1.60;;
2646;SDS011;1333;50.958;6.770;2022-11-15T09:30:38;5.40;;;1.87;;
2646;SDS011;1333;50.958;6.770;2022-11-15T09:33:08;3.43;;;1.40;;
2646;SDS011;1333;50.958;6.770;2022-11-15T09:35:34;1.70;;;1.47;;
2646;SDS011;1333;50.958;6.770;2022-11-15T09:38:00;1.93;;;1.70;;
2646;SDS011;1333;50.958;6.770;2022-11-15T09:40:26;1.50;;;1.20;;
2646;SDS011;1333;50.958;6.770;2022-11-15T09:45:50;2.70;;;1.97;;
2646;SDS011;1333;50.958;6.770;2022-11-15T09:48:33;3.37;;;2.03;;
2646;SDS011;1333;50.958;6.770;2022-11-15T09:51:00;1.40;;;1.30;;
2646;SDS011;1333;50.958;6.770;2022-11-15T09:56:01;1.43;;;1.20;;
2646;SDS011;1333;50.958;6.770;2022-11-15T10:04:08;1.70;;;1.20;;
2646;SDS011;1333;50.958;6.770;2022-11-15T10:06:34;1.40;;;1.30;;
2646;SDS011;1333;50.958;6.770;2022-11-15T10:11:41;2.40;;;1.40;;
2646;SDS011;1333;50.958;6.770;2022-11-15T10:14:12;1.87;;;1.67;;
2646;SDS011;1333;50.958;6.770;2022-11-15T10:16:59;2.53;;;1.70;;
2646;SDS011;1333;50.958;6.770;2022-11-15T10:24:59;3.20;;;1.80;;
2646;SDS011;1333;50.958;6.770;2022-11-15T10:27:41;2.10;;;1.90;;
2646;SDS011;1333;50.958;6.770;2022-11-15T10:30:10;1.67;;;1.57;;
2646;SDS011;1333;50.958;6.770;2022-11-15T10:32:38;2.70;;;1.80;;
2646;SDS011;1333;50.958;6.770;2022-11-15T10:35:17;1.60;;;1.30;;
2646;SDS011;1333;50.958;6.770;2022-11-15T10:37:45;4.50;;;1.23;;
2646;SDS011;1333;50.958;6.770;2022-11-15T10:42:44;4.40;;;0.90;;
2646;SDS011;1333;50.958;6.770;2022-11-15T10:45:23;1.53;;;0.97;;
2646;SDS011;1333;50.958;6.770;2022-11-15T10:48:18;3.03;;;0.83;;
2646;SDS011;1333;50.958;6.770;2022-11-15T10:50:46;3.20;;;0.97;;
2646;SDS011;1333;50.958;6.770;2022-11-15T10:53:16;1.10;;;0.60;;
2646;SDS011;1333;50.958;6.770;2022-11-15T10:56:07;1.43;;;0.90;;
2646;SDS011;1333;50.958;6.770;2022-11-15T10:58:37;2.13;;;0.90;;
2646;SDS011;1333;50.958;6.770;2022-11-15T11:01:13;1.50;;;0.87;;
2646;SDS011;1333;50.958;6.770;2022-11-15T11:04:03;1.20;;;0.70;;
2646;SDS011;1333;50.958;6.770;2022-11-15T11:06:46;4.70;;;0.80;;
2646;SDS011;1333;50.958;6.770;2022-11-15T11:11:51;2.07;;;0.90;;
2646;SDS011;1333;50.958;6.770;2022-11-15T11:14:20;1.10;;;0.70;;
2646;SDS011;1333;50.958;6.770;2022-11-15T11:22:03;1.53;;;0.93;;
2646;SDS011;1333;50.958;6.770;2022-11-15T11:24:41;2.80;;;0.97;;
2646;SDS011;1333;50.958;6.770;2022-11-15T11:27:43;3.67;;;0.90;;
2646;SDS011;1333;50.958;6.770;2022-11-15T11:30:29;5.93;;;1.00;;
2646;SDS011;1333;50.958;6.770;2022-11-15T11:33:10;1.73;;;0.70;;
2646;SDS011;1333;50.958;6.770;2022-11-15T11:35:56;3.90;;;0.80;;
2646;SDS011;1333;50.958;6.770;2022-11-15T11:44:22;2.00;;;1.00;;
2646;SDS011;1333;50.958;6.770;2022-11-15T11:49:33;1.67;;;0.83;;
2646;SDS011;1333;50.958;6.770;2022-11-15T11:54:58;1.97;;;1.00;;
2646;SDS011;1333;50.958;6.770;2022-11-15T11:57:32;1.40;;;0.90;;
2646;SDS011;1333;50.958;6.770;2022-11-15T12:11:30;2.40;;;0.90;;
2646;SDS011;1333;50.958;6.770;2022-11-15T12:14:32;2.70;;;1.00;;
2646;SDS011;1333;50.958;6.770;2022-11-15T12:17:12;5.00;;;1.00;;
2646;SDS011;1333;50.958;6.770;2022-11-15T12:19:39;1.67;;;0.97;;
2646;SDS011;1333;50.958;6.770;2022-11-15T12:22:13;1.63;;;0.83;;
2646;SDS011;1333;50.958;6.770;2022-11-15T12:24:46;4.93;;;1.13;;
2646;SDS011;1333;50.958;6.770;2022-11-15T12:29:48;1.97;;;1.33;;
2646;SDS011;1333;50.958;6.770;2022-11-15T12:32:21;4.40;;;1.27;;
2646;SDS011;1333;50.958;6.770;2022-11-15T12:35:56;2.13;;;1.17;;
2646;SDS011;1333;50.958;6.770;2022-11-15T12:38:08;2.20;;;1.30;;
2646;SDS011;1333;50.958;6.770;2022-11-15T12:40:36;6.00;;;1.70;;
2646;SDS011;1333;50.958;6.770;2022-11-15T12:45:35;3.17;;;1.20;;
2646;SDS011;1333;50.958;6.770;2022-11-15T13:07:00;3.87;;;1.30;;
2646;SDS011;1333;50.958;6.770;2022-11-15T13:20:17;2.63;;;0.97;;
2646;SDS011;1333;50.958;6.770;2022-11-15T13:22:39;1.37;;;0.90;;
2646;SDS011;1333;50.958;6.770;2022-11-15T13:33:19;1.50;;;0.90;;
2646;SDS011;1333;50.958;6.770;2022-11-15T13:35:55;1.97;;;1.10;;
2646;SDS011;1333;50.958;6.770;2022-11-15T13:38:32;2.10;;;1.10;;
2646;SDS011;1333;50.958;6.770;2022-11-15T13:40:59;2.00;;;0.93;;
2646;SDS011;1333;50.958;6.770;2022-11-15T13:43:36;3.00;;;1.33;;
2646;SDS011;1333;50.958;6.770;2022-11-15T13:46:12;2.20;;;1.27;;
2646;SDS011;1333;50.958;6.770;2022-11-15T13:48:43;6.73;;;1.37;;
2646;SDS011;1333;50.958;6.770;2022-11-15T13:56:49;1.60;;;1.20;;
2646;SDS011;1333;50.958;6.770;2022-11-15T13:59:27;3.13;;;1.50;;
2646;SDS011;1333;50.958;6.770;2022-11-15T14:01:55;2.37;;;1.63;;
2646;SDS011;1333;50.958;6.770;2022-11-15T14:04:23;5.20;;;1.97;;
2646;SDS011;1333;50.958;6.770;2022-11-15T14:06:56;3.23;;;1.77;;
2646;SDS011;1333;50.958;6.770;2022-11-15T14:11:57;2.13;;;1.73;;
2646;SDS011;1333;50.958;6.770;2022-11-15T14:14:24;2.17;;;1.77;;
2646;SDS011;1333;50.958;6.770;2022-11-15T14:16:52;3.40;;;1.87;;
2646;SDS011;1333;50.958;6.770;2022-11-15T14:28:07;2.00;;;1.60;;
2646;SDS011;1333;50.958;6.770;2022-11-15T14:30:32;3.33;;;2.20;;
2646;SDS011;1333;50.958;6.770;2022-11-15T14:32:58;3.10;;;2.13;;
2646;SDS011;1333;50.958;6.770;2022-11-15T14:35:24;1.77;;;1.60;;
2646;SDS011;1333;50.958;6.770;2022-11-15T14:37:49;3.27;;;1.90;;
2646;SDS011;1333;50.958;6.770;2022-11-15T14:40:16;2.13;;;1.93;;
2646;SDS011;1333;50.958;6.770;2022-11-15T14:42:44;2.20;;;1.80;;
2646;SDS011;1333;50.958;6.770;2022-11-15T14:47:39;3.10;;;2.00;;
2646;SDS011;1333;50.958;6.770;2022-11-15T14:50:04;1.60;;;1.40;;
2646;SDS011;1333;50.958;6.770;2022-11-15T14:52:31;2.10;;;1.40;;
2646;SDS011;1333;50.958;6.770;2022-11-15T14:55:01;2.57;;;1.70;;
2646;SDS011;1333;50.958;6.770;2022-11-15T14:57:29;1.73;;;1.43;;
2646;SDS011;1333;50.958;6.770;2022-11-15T14:59:55;2.37;;;1.50;;
2646;SDS011;1333;50.958;6.770;2022-11-15T15:02:25;2.90;;;2.00;;
2646;SDS011;1333;50.958;6.770;2022-11-15T15:04:51;3.63;;;2.13;;
2646;SDS011;1333;50.958;6.770;2022-11-15T15:07:18;3.90;;;2.60;;
2646;SDS011;1333;50.958;6.770;2022-11-15T15:09:44;3.70;;;2.50;;
2646;SDS011;1333;50.958;6.770;2022-11-15T15:12:16;2.50;;;1.90;;
2646;SDS011;1333;50.958;6.770;2022-11-15T15:14:44;2.20;;;1.80;;
2646;SDS011;1333;50.958;6.770;2022-11-15T15:17:10;4.17;;;2.43;;
2646;SDS011;1333;50.958;6.770;2022-11-15T15:19:36;4.10;;;2.57;;
2646;SDS011;1333;50.958;6.770;2022-11-15T15:22:01;2.20;;;1.70;;
2646;SDS011;1333;50.958;6.770;2022-11-15T15:24:27;2.03;;;1.53;;
2646;SDS011;1333;50.958;6.770;2022-11-15T15:26:52;2.43;;;1.73;;
2646;SDS011;1333;50.958;6.770;2022-11-15T15:29:18;4.07;;;2.10;;
2646;SDS011;1333;50.958;6.770;2022-11-15T15:31:43;1.70;;;1.50;;
2646;SDS011;1333;50.958;6.770;2022-11-15T15:34:09;1.70;;;1.37;;
2646;SDS011;1333;50.958;6.770;2022-11-15T15:36:34;2.93;;;1.83;;
2646;SDS011;1333;50.958;6.770;2022-11-15T15:39:00;2.20;;;1.70;;
2646;SDS011;1333;50.958;6.770;2022-11-15T15:41:25;2.60;;;1.93;;
2646;SDS011;1333;50.958;6.770;2022-11-15T15:43:51;2.23;;;1.50;;
2646;SDS011;1333;50.958;6.770;2022-11-15T15:46:17;5.53;;;2.17;;
2646;SDS011;1333;50.958;6.770;2022-11-15T15:48:44;1.90;;;1.43;;
2646;SDS011;1333;50.958;6.770;2022-11-15T15:51:10;2.80;;;1.30;;
2646;SDS011;1333;50.958;6.770;2022-11-15T15:53:36;1.90;;;1.60;;
2646;SDS011;1333;50.958;6.770;2022-11-15T15:56:01;3.60;;;2.47;;
2646;SDS011;1333;50.958;6.770;2022-11-15T15:58:27;2.63;;;1.70;;
2646;SDS011;1333;50.958;6.770;2022-11-15T16:00:53;3.53;;;1.50;;
2646;SDS011;1333;50.958;6.770;2022-11-15T16:03:18;1.63;;;1.10;;
2646;SDS011;1333;50.958;6.770;2022-11-15T16:05:44;2.90;;;1.77;;
2646;SDS011;1333;50.958;6.770;2022-11-15T16:08:19;2.30;;;1.80;;
2646;SDS011;1333;50.958;6.770;2022-11-15T16:10:47;2.10;;;1.60;;
2646;SDS011;1333;50.958;6.770;2022-11-15T16:13:13;2.20;;;1.67;;
2646;SDS011;1333;50.958;6.770;2022-11-15T16:15:39;4.17;;;1.83;;
2646;SDS011;1333;50.958;6.770;2022-11-15T16:18:05;1.90;;;1.67;;
2646;SDS011;1333;50.958;6.770;2022-11-15T16:20:39;3.07;;;1.50;;
2646;SDS011;1333;50.958;6.770;2022-11-15T16:23:08;2.00;;;1.70;;
2646;SDS011;1333;50.958;6.770;2022-11-15T16:25:44;2.37;;;1.57;;
2646;SDS011;1333;50.958;6.770;2022-11-15T16:30:48;3.70;;;1.97;;
2646;SDS011;1333;50.958;6.770;2022-11-15T16:33:14;2.50;;;1.70;;
2646;SDS011;1333;50.958;6.770;2022-11-15T16:35:42;2.03;;;1.47;;
2646;SDS011;1333;50.958;6.770;2022-11-15T16:38:12;1.47;;;1.33;;
2646;SDS011;1333;50.958;6.770;2022-11-15T16:40:39;1.77;;;1.43;;
2646;SDS011;1333;50.958;6.770;2022-11-15T16:43:05;3.23;;;1.47;;
2646;SDS011;1333;50.958;6.770;2022-11-15T16:45:31;1.67;;;1.20;;
2646;SDS011;1333;50.958;6.770;2022-11-15T16:47:59;2.40;;;1.83;;
2646;SDS011;1333;50.958;6.770;2022-11-15T16:50:26;2.97;;;2.10;;
2646;SDS011;1333;50.958;6.770;2022-11-15T16:52:54;2.00;;;1.70;;
2646;SDS011;1333;50.958;6.770;2022-11-15T16:55:22;1.47;;;1.37;;
2646;SDS011;1333;50.958;6.770;2022-11-15T16:57:49;2.40;;;1.70;;
2646;SDS011;1333;50.958;6.770;2022-11-15T17:00:17;3.67;;;1.97;;
2646;SDS011;1333;50.958;6.770;2022-11-15T17:02:44;2.20;;;1.93;;
2646;SDS011;1333;50.958;6.770;2022-11-15T17:05:11;2.83;;;2.07;;
2646;SDS011;1333;50.958;6.770;2022-11-15T17:07:38;3.97;;;2.40;;
2646;SDS011;1333;50.958;6.770;2022-11-15T17:10:04;5.03;;;2.73;;
2646;SDS011;1333;50.958;6.770;2022-11-15T17:12:31;5.00;;;2.70;;
2646;SDS011;1333;50.958;6.770;2022-11-15T17:15:00;2.30;;;2.10;;
2646;SDS011;1333;50.958;6.770;2022-11-15T17:17:26;4.77;;;1.90;;
2646;SDS011;1333;50.958;6.770;2022-11-15T17:19:52;2.73;;;2.17;;
2646;SDS011;1333;50.958;6.770;2022-11-15T17:22:18;6.27;;;2.17;;
2646;SDS011;1333;50.958;6.770;2022-11-15T17:24:44;2.60;;;1.77;;
2646;SDS011;1333;50.958;6.770;2022-11-15T17:27:09;3.73;;;2.10;;
2646;SDS011;1333;50.958;6.770;2022-11-15T17:29:35;4.00;;;2.13;;
2646;SDS011;1333;50.958;6.770;2022-11-15T17:32:00;2.50;;;2.17;;
2646;SDS011;1333;50.958;6.770;2022-11-15T17:34:26;4.70;;;2.73;;
2646;SDS011;1333;50.958;6.770;2022-11-15T17:36:51;3.13;;;2.20;;
2646;SDS011;1333;50.958;6.770;2022-11-15T17:39:17;3.30;;;2.10;;
2646;SDS011;1333;50.958;6.770;2022-11-15T17:41:44;3.63;;;2.30;;
2646;SDS011;1333;50.958;6.770;2022-11-15T17:44:10;3.90;;;2.87;;
2646;SDS011;1333;50.958;6.770;2022-11-15T17:46:36;2.40;;;2.07;;
2646;SDS011;1333;50.958;6.770;2022-11-15T17:49:02;4.17;;;2.73;;
2646;SDS011;1333;50.958;6.770;2022-11-15T17:51:27;8.87;;;3.60;;
2646;SDS011;1333;50.958;6.770;2022-11-15T17:53:54;2.83;;;2.50;;
2646;SDS011;1333;50.958;6.770;2022-11-15T17:56:20;8.60;;;2.83;;